Time;durP1;ratioP1;P1;durP2;ratioP2;P2;SDS_P1;SDS_P2;PMS_P1;PMS_P2;Temp;Humidity;BMP_temperature;BMP_pressure;BME280_temperature;BME280_humidity;BME280_pressure;Samples;Min_cycle;Max_cycle;Signal;HPM_P1;HPM_P2
2021/03/05 00:00:56;;;;;;;10.37;2.67;;;-1.00;84.40;;;;;;5095946;28;20248;-84
2021/03/05 00:03:22;;;;;;;10.87;2.70;;;-1.00;84.40;;;;;;5095961;28;20195;-85
2021/03/05 00:05:48;;;;;;;9.93;2.50;;;-1.00;84.40;;;;;;5077611;28;20219;-85
2021/03/05 00:08:16;;;;;;;6.87;2.30;;;-1.00;84.40;;;;;;5077666;28;20204;-84
2021/03/05 00:10:42;;;;;;;9.30;2.23;;;-0.90;84.50;;;;;;5096082;28;20166;-84
2021/03/05 00:13:09;;;;;;;9.13;2.23;;;-0.90;84.40;;;;;;5095721;28;20212;-84
2021/03/05 00:15:37;;;;;;;8.93;2.37;;;-0.90;84.40;;;;;;5095434;28;20609;-85
2021/03/05 00:18:04;;;;;;;4.60;2.20;;;-0.90;84.50;;;;;;5077450;28;20171;-85
2021/03/05 00:20:32;;;;;;;10.57;2.40;;;-0.90;84.40;;;;;;5077400;28;20204;-85
2021/03/05 00:22:58;;;;;;;21.10;2.83;;;-0.90;84.50;;;;;;5077394;28;20646;-85
2021/03/05 00:25:25;;;;;;;9.47;2.60;;;-0.90;84.50;;;;;;5095468;28;20222;-85
2021/03/05 00:27:51;;;;;;;5.50;2.57;;;-0.90;84.40;;;;;;5095394;28;20164;-85
2021/03/05 00:30:17;;;;;;;14.63;3.67;;;-0.90;84.50;;;;;;5095385;28;20173;-85
2021/03/05 00:32:43;;;;;;;7.13;2.60;;;-1.00;84.40;;;;;;5095583;28;20321;-85
2021/03/05 00:35:12;;;;;;;9.53;2.77;;;-1.00;84.40;;;;;;5077022;28;20192;-85
2021/03/05 00:37:38;;;;;;;9.60;2.60;;;-1.00;84.50;;;;;;5077082;28;20184;-85
2021/03/05 00:40:09;;;;;;;5.40;2.90;;;-0.90;84.40;;;;;;5095127;28;20200;-84
2021/03/05 00:42:34;;;;;;;14.90;3.07;;;-1.00;84.40;;;;;;5076956;28;20171;-84
2021/03/05 00:45:00;;;;;;;8.50;2.83;;;-0.90;84.20;;;;;;5076955;28;20200;-84
2021/03/05 00:47:26;;;;;;;3.93;2.10;;;-0.90;84.00;;;;;;5095180;28;20163;-85
2021/03/05 00:49:52;;;;;;;4.80;2.27;;;-0.90;84.10;;;;;;5077143;28;20174;-85
2021/03/05 00:52:17;;;;;;;10.37;2.40;;;-0.90;83.90;;;;;;5095428;28;20198;-84
2021/03/05 00:54:43;;;;;;;11.37;2.67;;;-0.90;83.70;;;;;;5095269;28;20195;-84
2021/03/05 00:57:09;;;;;;;6.70;2.30;;;-1.00;83.80;;;;;;5077400;28;20602;-85
2021/03/05 00:59:34;;;;;;;7.00;2.50;;;-1.00;84.00;;;;;;5077069;28;20252;-85
2021/03/05 01:02:00;;;;;;;5.17;2.20;;;-0.90;84.00;;;;;;5077072;28;20181;-84
2021/03/05 01:04:37;;;;;;;7.80;2.73;;;-0.90;83.60;;;;;;5076682;28;20218;-83
2021/03/05 01:07:06;;;;;;;6.27;2.27;;;-1.00;83.60;;;;;;5076909;28;20570;-83
2021/03/05 01:09:35;;;;;;;9.43;3.10;;;-0.90;83.50;;;;;;5094612;28;20175;-82
2021/03/05 01:12:03;;;;;;;12.60;2.73;;;-1.00;83.40;;;;;;5076164;28;20172;-83
2021/03/05 01:14:29;;;;;;;13.30;2.67;;;-1.00;83.40;;;;;;5076340;28;20205;-83
2021/03/05 01:16:56;;;;;;;9.53;3.10;;;-1.00;83.40;;;;;;5076358;28;20177;-83
2021/03/05 01:19:28;;;;;;;5.70;2.43;;;-1.10;83.40;;;;;;5076206;28;20199;-83
2021/03/05 01:21:54;;;;;;;8.97;2.10;;;-1.10;83.40;;;;;;5076266;28;20248;-83
2021/03/05 01:24:20;;;;;;;8.03;2.60;;;-1.10;83.40;;;;;;5094402;28;20657;-83
2021/03/05 01:26:54;;;;;;;5.80;2.70;;;-1.20;83.20;;;;;;5094358;28;20174;-83
2021/03/05 01:29:21;;;;;;;9.47;2.50;;;-1.10;83.20;;;;;;5076374;28;20211;-83
2021/03/05 01:31:52;;;;;;;4.23;2.17;;;-1.10;83.00;;;;;;5076145;28;20180;-83
2021/03/05 01:34:24;;;;;;;4.07;2.10;;;-1.10;83.20;;;;;;5094014;28;20722;-83
2021/03/05 01:36:56;;;;;;;7.60;2.73;;;-1.10;82.90;;;;;;5075909;28;20185;-83
2021/03/05 01:39:27;;;;;;;5.50;2.37;;;-1.10;83.00;;;;;;5094330;28;20644;-83
2021/03/05 01:42:01;;;;;;;5.63;2.33;;;-1.10;82.70;;;;;;5075880;28;20172;-83
2021/03/05 01:44:33;;;;;;;8.87;2.87;;;-1.10;82.60;;;;;;5094005;28;20713;-83
2021/03/05 01:47:11;;;;;;;8.60;2.60;;;-1.10;82.50;;;;;;5075664;28;20547;-83
2021/03/05 01:49:50;;;;;;;8.27;2.50;;;-1.10;82.50;;;;;;5093838;28;20224;-83
2021/03/05 01:52:24;;;;;;;6.13;2.37;;;-1.10;82.30;;;;;;5075610;28;20177;-83
2021/03/05 01:54:55;;;;;;;9.77;2.93;;;-1.20;82.40;;;;;;5093717;28;20694;-83
2021/03/05 01:57:30;;;;;;;7.57;2.40;;;-1.30;82.50;;;;;;5075522;28;20224;-83
2021/03/05 02:00:03;;;;;;;4.33;2.47;;;-1.30;82.80;;;;;;5093966;28;20194;-83
2021/03/05 02:02:41;;;;;;;4.87;2.50;;;-1.20;82.70;;;;;;5075495;28;20224;-83
2021/03/05 02:05:18;;;;;;;12.87;2.47;;;-1.30;82.80;;;;;;5092383;28;20238;-83
2021/03/05 02:07:53;;;;;;;13.80;3.10;;;-1.30;82.60;;;;;;5075489;28;20356;-84
2021/03/05 02:10:28;;;;;;;7.60;2.70;;;-1.30;82.50;;;;;;5093588;28;20225;-84
2021/03/05 02:12:53;;;;;;;4.83;2.27;;;-1.40;82.60;;;;;;5093534;28;20181;-84
2021/03/05 02:15:29;;;;;;;4.37;2.20;;;-1.40;82.70;;;;;;5075391;28;20213;-84
2021/03/05 02:18:02;;;;;;;9.43;2.83;;;-1.40;82.70;;;;;;5094097;28;20159;-83
2021/03/05 02:20:58;;;;;;;8.57;2.83;;;-1.40;82.70;;;;;;5075639;28;20218;-83
2021/03/05 02:23:56;;;;;;;5.37;2.67;;;-1.40;82.80;;;;;;5093532;28;20279;-83
2021/03/05 02:26:52;;;;;;;8.10;2.80;;;-1.30;82.40;;;;;;5093499;28;20164;-84
2021/03/05 02:29:46;;;;;;;6.60;2.50;;;-1.40;82.50;;;;;;5093432;28;20261;-83
2021/03/05 02:32:37;;;;;;;13.03;2.87;;;-1.30;82.30;;;;;;5093767;28;20162;-84
2021/03/05 02:35:12;;;;;;;5.90;2.43;;;-1.40;82.50;;;;;;5075275;28;20198;-83
2021/03/05 02:37:50;;;;;;;13.30;2.83;;;-1.40;82.50;;;;;;5093310;28;20261;-83
2021/03/05 02:40:26;;;;;;;8.73;2.97;;;-1.50;82.70;;;;;;5093222;28;20198;-83
2021/03/05 02:43:04;;;;;;;4.57;2.53;;;-1.40;82.40;;;;;;5093296;28;20175;-84
2021/03/05 02:45:41;;;;;;;4.23;2.70;;;-1.40;82.10;;;;;;5093211;28;20246;-83
2021/03/05 02:48:14;;;;;;;4.50;2.33;;;-1.40;82.10;;;;;;5093175;28;20166;-83
2021/03/05 02:50:45;;;;;;;6.77;2.37;;;-1.60;82.40;;;;;;5093177;28;20205;-84
2021/03/05 02:53:17;;;;;;;11.73;3.90;;;-1.50;82.50;;;;;;5093415;28;20183;-83
2021/03/05 02:55:56;;;;;;;6.10;2.37;;;-1.40;82.40;;;;;;5093490;28;20548;-83
2021/03/05 02:58:31;;;;;;;7.60;2.50;;;-1.50;82.50;;;;;;5074951;28;20178;-83
2021/03/05 03:01:01;;;;;;;5.93;2.63;;;-1.60;82.70;;;;;;5093089;28;20537;-84
2021/03/05 03:03:37;;;;;;;10.53;2.60;;;-1.60;82.80;;;;;;5074823;28;20207;-83
2021/03/05 03:06:11;;;;;;;5.40;2.70;;;-1.60;83.00;;;;;;5093435;28;20588;-84
2021/03/05 03:08:45;;;;;;;6.63;2.60;;;-1.50;83.10;;;;;;5093020;28;20162;-83
2021/03/05 03:11:22;;;;;;;6.37;2.40;;;-1.50;83.00;;;;;;5093217;28;20535;-83
2021/03/05 03:13:55;;;;;;;6.33;2.77;;;-1.50;83.00;;;;;;5093171;28;20616;-84
2021/03/05 03:16:23;;;;;;;6.37;2.90;;;-1.50;83.20;;;;;;5092982;28;20604;-83
2021/03/05 03:18:58;;;;;;;9.27;3.00;;;-1.50;83.10;;;;;;5074717;28;20209;-83
2021/03/05 03:21:26;;;;;;;9.23;3.23;;;-1.60;82.90;;;;;;5092974;28;20154;-84
2021/03/05 03:23:57;;;;;;;9.47;2.83;;;-1.60;83.20;;;;;;5092700;28;20194;-83
2021/03/05 03:26:31;;;;;;;6.87;3.13;;;-1.60;83.10;;;;;;5075563;28;20174;-83
2021/03/05 03:28:57;;;;;;;6.93;2.87;;;-1.60;83.30;;;;;;5092860;28;20555;-84
2021/03/05 03:31:31;;;;;;;8.30;2.70;;;-1.50;83.30;;;;;;5074626;28;20175;-84
2021/03/05 03:34:07;;;;;;;7.13;3.13;;;-1.50;83.00;;;;;;5094454;28;20198;-83
2021/03/05 03:36:48;;;;;;;9.13;3.37;;;-1.50;82.70;;;;;;5078363;28;20221;-83
2021/03/05 03:39:24;;;;;;;11.43;3.20;;;-1.60;82.80;;;;;;5078225;28;20210;-83
2021/03/05 03:42:01;;;;;;;13.23;3.40;;;-1.60;82.90;;;;;;5078755;28;20202;-83
2021/03/05 03:44:28;;;;;;;6.93;3.47;;;-1.60;83.00;;;;;;5096634;28;20546;-84
2021/03/05 03:47:02;;;;;;;5.57;3.37;;;-1.60;82.80;;;;;;5096410;28;20623;-83
2021/03/05 03:49:49;;;;;;;10.43;3.50;;;-1.80;82.90;;;;;;5096672;28;20155;-83
2021/03/05 03:52:40;;;;;;;13.00;2.93;;;-1.80;83.00;;;;;;5096456;28;20156;-84
2021/03/05 03:55:08;;;;;;;8.17;3.20;;;-1.80;82.90;;;;;;5077783;28;20198;-83
2021/03/05 03:57:47;;;;;;;9.77;3.90;;;-1.90;83.00;;;;;;5078055;28;20754;-83
2021/03/05 04:00:19;;;;;;;10.43;3.30;;;-1.80;83.10;;;;;;5095985;28;20209;-83
2021/03/05 04:02:57;;;;;;;8.83;3.73;;;-1.90;83.10;;;;;;5077726;28;20634;-83
2021/03/05 04:05:34;;;;;;;5.53;3.00;;;-1.90;83.00;;;;;;5077622;28;20210;-83
2021/03/05 04:08:03;;;;;;;7.33;3.43;;;-1.90;83.10;;;;;;5095850;28;20265;-83
2021/03/05 04:10:34;;;;;;;6.00;3.20;;;-2.00;82.80;;;;;;5095824;28;20175;-83
2021/03/05 04:13:15;;;;;;;4.83;3.00;;;-1.90;82.70;;;;;;5095888;28;20198;-83
2021/03/05 04:15:47;;;;;;;5.20;3.00;;;-2.00;82.70;;;;;;5095685;28;20191;-83
2021/03/05 04:18:21;;;;;;;6.67;3.33;;;-2.00;82.60;;;;;;5095939;28;20178;-83
2021/03/05 04:20:56;;;;;;;9.80;3.70;;;-2.00;82.50;;;;;;5095613;28;20237;-84
2021/03/05 04:23:26;;;;;;;5.33;2.97;;;-2.00;82.60;;;;;;5095581;28;20228;-84
2021/03/05 04:25:59;;;;;;;7.37;3.00;;;-2.00;82.70;;;;;;5077430;28;20202;-84
2021/03/05 04:28:33;;;;;;;7.30;3.43;;;-2.00;82.80;;;;;;5095452;28;20178;-84
2021/03/05 04:31:02;;;;;;;8.17;3.30;;;-2.10;82.70;;;;;;5095508;28;20178;-83
2021/03/05 04:33:35;;;;;;;4.73;3.63;;;-2.10;82.70;;;;;;5095246;28;20175;-83
2021/03/05 04:36:14;;;;;;;9.43;3.77;;;-2.10;82.50;;;;;;5095309;28;20197;-83
2021/03/05 04:38:49;;;;;;;6.13;2.67;;;-2.10;82.50;;;;;;5077150;28;20638;-84
2021/03/05 04:41:21;;;;;;;7.63;3.10;;;-2.10;82.50;;;;;;5077142;28;20167;-84
2021/03/05 04:43:56;;;;;;;8.27;3.00;;;-2.10;82.70;;;;;;5095021;28;20198;-83
2021/03/05 04:46:34;;;;;;;11.40;3.13;;;-2.00;82.50;;;;;;5075816;28;20638;-83
2021/03/05 04:49:07;;;;;;;12.00;3.37;;;-2.10;82.50;;;;;;5076899;28;20638;-84
2021/03/05 04:51:33;;;;;;;6.47;3.40;;;-2.20;82.70;;;;;;5077165;28;20571;-83
2021/03/05 04:54:11;;;;;;;9.83;3.43;;;-2.20;82.60;;;;;;5094989;28;20194;-83
2021/03/05 04:56:48;;;;;;;7.30;3.10;;;-2.20;82.50;;;;;;5076732;28;20189;-84
2021/03/05 04:59:23;;;;;;;4.23;3.13;;;-2.20;82.50;;;;;;5076565;28;20210;-83
2021/03/05 05:02:01;;;;;;;6.50;3.30;;;-2.20;82.30;;;;;;5094809;28;20253;-84
2021/03/05 05:04:35;;;;;;;6.93;3.13;;;-2.20;82.40;;;;;;5076490;28;20210;-83
2021/03/05 05:07:09;;;;;;;11.80;3.77;;;-2.20;82.20;;;;;;5076542;28;20175;-83
2021/03/05 05:09:41;;;;;;;6.07;3.17;;;-2.30;82.40;;;;;;5095017;28;20167;-83
2021/03/05 05:12:18;;;;;;;6.17;3.70;;;-2.30;82.60;;;;;;5094562;28;20182;-83
2021/03/05 05:14:51;;;;;;;7.27;3.20;;;-2.30;82.40;;;;;;5076332;28;20202;-83
2021/03/05 05:17:17;;;;;;;7.53;3.13;;;-2.30;81.90;;;;;;5094581;28;20555;-83
2021/03/05 05:19:46;;;;;;;7.13;3.00;;;-2.40;82.10;;;;;;5094653;28;20195;-83
2021/03/05 05:22:16;;;;;;;6.77;3.07;;;-2.40;82.10;;;;;;5076412;28;20585;-83
2021/03/05 05:24:48;;;;;;;9.80;3.47;;;-2.40;82.20;;;;;;5094354;28;20197;-84
2021/03/05 05:27:24;;;;;;;8.03;3.37;;;-2.50;82.00;;;;;;5094391;28;20642;-83
2021/03/05 05:30:02;;;;;;;6.63;3.10;;;-2.50;82.10;;;;;;5094335;28;20193;-83
2021/03/05 05:32:36;;;;;;;6.60;3.00;;;-2.40;81.90;;;;;;5076362;28;20588;-83
2021/03/05 05:35:09;;;;;;;7.77;3.00;;;-2.40;81.80;;;;;;5076122;28;20334;-83
2021/03/05 05:37:41;;;;;;;9.87;3.17;;;-2.40;81.80;;;;;;5094183;28;20186;-83
2021/03/05 05:40:13;;;;;;;7.83;3.40;;;-2.40;81.70;;;;;;5075857;28;20198;-84
2021/03/05 05:42:49;;;;;;;7.10;3.37;;;-2.40;81.50;;;;;;5094405;28;20527;-83
2021/03/05 05:45:24;;;;;;;5.33;2.93;;;-2.40;81.50;;;;;;5075788;28;20206;-83
2021/03/05 05:47:57;;;;;;;12.23;3.70;;;-2.50;81.60;;;;;;5075804;28;20623;-83
2021/03/05 05:50:31;;;;;;;9.50;3.73;;;-2.50;81.70;;;;;;5093882;28;20212;-83
2021/03/05 05:53:09;;;;;;;7.07;3.27;;;-2.50;81.50;;;;;;5093880;28;20638;-83
2021/03/05 05:55:40;;;;;;;4.37;2.87;;;-2.50;81.50;;;;;;5075576;28;20202;-83
2021/03/05 05:58:11;;;;;;;12.87;2.83;;;-2.60;81.40;;;;;;5093599;28;20183;-83
2021/03/05 06:00:47;;;;;;;6.53;3.30;;;-2.60;81.40;;;;;;5075565;28;20671;-83
2021/03/05 06:03:16;;;;;;;5.60;2.90;;;-2.60;81.50;;;;;;5094100;28;20183;-83
2021/03/05 06:05:44;;;;;;;5.77;3.27;;;-2.60;81.30;;;;;;5093431;28;20686;-83
2021/03/05 06:08:20;;;;;;;6.27;3.00;;;-2.60;81.20;;;;;;5075490;28;20178;-83
2021/03/05 06:10:53;;;;;;;12.60;3.00;;;-2.70;81.10;;;;;;5093623;28;20189;-83
2021/03/05 06:13:27;;;;;;;5.27;3.07;;;-2.60;80.70;;;;;;5093979;28;20162;-83
2021/03/05 06:16:18;;;;;;;8.17;3.23;;;-2.70;80.40;;;;;;5075484;28;20526;-83
2021/03/05 06:18:50;;;;;;;6.63;2.90;;;-2.70;80.50;;;;;;5075362;28;20206;-83
2021/03/05 06:21:43;;;;;;;10.50;3.50;;;-2.70;80.30;;;;;;5093518;28;20183;-83
2021/03/05 06:24:17;;;;;;;5.13;2.73;;;-2.80;80.40;;;;;;5093289;28;20201;-83
2021/03/05 06:27:00;;;;;;;4.30;2.67;;;-2.80;80.50;;;;;;5093409;28;20166;-83
2021/03/05 06:29:45;;;;;;;7.97;3.23;;;-2.90;80.40;;;;;;5075313;28;20167;-83
2021/03/05 06:32:17;;;;;;;3.83;2.60;;;-2.80;80.40;;;;;;5076602;28;20210;-83
2021/03/05 06:34:57;;;;;;;4.57;3.20;;;-2.90;80.30;;;;;;5093309;28;20281;-83
2021/03/05 06:37:41;;;;;;;7.77;3.17;;;-2.90;80.30;;;;;;5093460;28;20163;-83
2021/03/05 06:40:18;;;;;;;8.23;2.80;;;-2.90;80.40;;;;;;5075048;28;20209;-83
2021/03/05 06:42:54;;;;;;;10.43;3.00;;;-2.80;80.40;;;;;;5093235;28;20194;-83
2021/03/05 06:45:35;;;;;;;11.47;3.07;;;-2.80;80.40;;;;;;5075162;28;20194;-83
2021/03/05 06:48:06;;;;;;;5.87;3.37;;;-2.80;80.50;;;;;;5075212;28;20187;-83
2021/03/05 06:50:34;;;;;;;4.60;2.70;;;-2.80;80.70;;;;;;5093236;28;20178;-83
2021/03/05 06:53:01;;;;;;;4.20;2.57;;;-2.90;80.90;;;;;;5093099;28;20249;-83
2021/03/05 06:55:39;;;;;;;5.73;2.77;;;-2.90;81.50;;;;;;5093242;28;20222;-83
2021/03/05 06:58:09;;;;;;;4.20;2.70;;;-3.00;81.60;;;;;;5075038;28;20224;-83
2021/03/05 07:00:41;;;;;;;6.13;2.90;;;-3.00;81.50;;;;;;5093037;28;20717;-83
2021/03/05 07:03:26;;;;;;;8.57;4.00;;;-3.00;81.50;;;;;;5074871;28;20174;-83
2021/03/05 07:05:57;;;;;;;5.67;3.13;;;-3.00;81.60;;;;;;5185632;22;20230;-83
2021/03/05 07:08:42;;;;;;;6.30;3.07;;;-2.90;81.80;;;;;;5094283;28;20151;-83
2021/03/05 07:11:30;;;;;;;6.00;3.47;;;-2.90;81.90;;;;;;5079038;28;20194;-83
2021/03/05 07:14:04;;;;;;;6.60;3.37;;;-2.80;82.00;;;;;;5097308;28;20171;-82
2021/03/05 07:16:51;;;;;;;6.17;2.83;;;-2.80;82.40;;;;;;5096912;28;20678;-84
2021/03/05 07:19:22;;;;;;;8.63;2.80;;;-2.80;82.40;;;;;;5078900;28;20199;-83
2021/03/05 07:21:53;;;;;;;2.77;2.40;;;-2.70;82.50;;;;;;5079226;28;20182;-83
2021/03/05 07:24:28;;;;;;;5.77;3.10;;;-2.70;82.30;;;;;;5097128;28;20646;-83
2021/03/05 07:27:05;;;;;;;13.83;3.40;;;-2.60;82.90;;;;;;5096962;28;20185;-83
2021/03/05 07:29:43;;;;;;;9.13;3.37;;;-2.60;83.30;;;;;;5097296;28;20189;-84
2021/03/05 07:32:21;;;;;;;7.67;3.20;;;-2.50;83.40;;;;;;5097055;28;20166;-83
2021/03/05 07:35:00;;;;;;;4.73;2.70;;;-2.30;83.50;;;;;;5096741;28;20181;-83
2021/03/05 07:37:47;;;;;;;7.00;3.37;;;-2.20;83.00;;;;;;5096911;28;20654;-83
2021/03/05 07:40:21;;;;;;;6.83;3.03;;;-2.10;83.10;;;;;;5096783;28;20190;-82
2021/03/05 07:42:57;;;;;;;16.77;3.57;;;-2.10;83.20;;;;;;5096926;28;20541;-83
2021/03/05 07:45:29;;;;;;;7.83;4.00;;;-2.00;83.10;;;;;;5097028;28;20187;-83
2021/03/05 07:48:04;;;;;;;11.50;4.00;;;-2.00;83.00;;;;;;5096558;28;20170;-83
2021/03/05 07:50:38;;;;;;;8.70;3.90;;;-1.90;83.20;;;;;;5078959;28;20170;-83
2021/03/05 07:53:04;;;;;;;5.20;3.20;;;-1.70;83.00;;;;;;5096511;28;20174;-83
2021/03/05 07:55:43;;;;;;;12.87;3.40;;;-1.60;82.40;;;;;;5078450;28;20198;-83
2021/03/05 07:58:49;;;;;;;7.67;3.17;;;-1.60;82.00;;;;;;5096633;28;20162;-83
2021/03/05 08:01:52;;;;;;;7.90;3.67;;;-1.60;82.00;;;;;;5096435;28;20187;-83
2021/03/05 08:04:44;;;;;;;6.03;4.23;;;-1.50;82.30;;;;;;5077966;28;20174;-83
2021/03/05 08:07:19;;;;;;;5.23;3.30;;;-1.40;82.20;;;;;;5095751;28;20262;-83
2021/03/05 08:09:51;;;;;;;7.00;3.67;;;-1.30;82.00;;;;;;5095992;28;20182;-83
2021/03/05 08:12:37;;;;;;;5.53;2.87;;;-1.30;81.80;;;;;;5077668;28;20182;-83
2021/03/05 08:15:20;;;;;;;6.53;2.73;;;-1.20;81.60;;;;;;5096001;28;20731;-84
2021/03/05 08:17:50;;;;;;;11.07;2.97;;;-1.20;81.40;;;;;;5077661;28;20171;-84
2021/03/05 08:20:21;;;;;;;6.30;3.43;;;-1.10;81.50;;;;;;5096930;28;20518;-84
2021/03/05 08:23:04;;;;;;;4.90;2.77;;;-1.00;81.60;;;;;;5096593;28;20178;-84
2021/03/05 08:25:35;;;;;;;3.23;2.30;;;-1.00;81.20;;;;;;5078211;28;20196;-84
2021/03/05 08:28:25;;;;;;;6.07;2.87;;;-0.90;81.20;;;;;;5099140;28;20190;-83
2021/03/05 08:30:53;;;;;;;7.53;2.97;;;-0.80;81.10;;;;;;5095478;28;20552;-83
2021/03/05 08:33:33;;;;;;;4.87;3.00;;;-0.70;80.70;;;;;;5095841;28;20247;-83
2021/03/05 08:36:04;;;;;;;5.47;2.87;;;-0.60;80.50;;;;;;5078579;28;20277;-84
2021/03/05 08:38:45;;;;;;;6.20;2.57;;;-0.50;80.60;;;;;;5077561;28;20177;-84
2021/03/05 08:41:24;;;;;;;7.10;3.03;;;-0.50;80.40;;;;;;5096498;28;20176;-84
2021/03/05 08:44:08;;;;;;;6.13;2.57;;;-0.30;80.30;;;;;;5078776;28;20168;-83
2021/03/05 08:46:37;;;;;;;6.27;3.00;;;-0.20;79.80;;;;;;5097281;28;20194;-84
2021/03/05 08:49:03;;;;;;;4.80;2.50;;;-0.10;79.80;;;;;;5095786;28;20213;-85
2021/03/05 08:51:34;;;;;;;6.23;2.30;;;0.00;79.90;;;;;;5095470;28;20667;-83
2021/03/05 08:54:04;;;;;;;6.67;2.77;;;0.00;79.90;;;;;;5097079;28;20164;-84
2021/03/05 08:56:36;;;;;;;5.10;2.77;;;0.00;80.10;;;;;;5095652;28;20280;-84
2021/03/05 08:59:11;;;;;;;5.77;2.67;;;0.00;80.30;;;;;;5096083;28;20179;-84
2021/03/05 09:01:44;;;;;;;4.57;2.70;;;0.10;80.30;;;;;;5077918;28;20253;-83
2021/03/05 09:04:20;;;;;;;6.70;2.90;;;0.40;79.60;;;;;;5096636;28;20663;-83
2021/03/05 09:06:58;;;;;;;4.87;2.40;;;0.40;78.90;;;;;;5077999;28;20204;-83
2021/03/05 09:09:32;;;;;;;6.30;2.43;;;0.50;79.30;;;;;;5095081;28;20241;-83
2021/03/05 09:12:21;;;;;;;3.67;2.60;;;0.60;79.00;;;;;;5076611;28;20178;-83
2021/03/05 09:15:07;;;;;;;4.53;2.83;;;0.90;78.00;;;;;;5076857;28;20551;-84
2021/03/05 09:17:50;;;;;;;7.20;2.87;;;1.20;77.30;;;;;;5094705;28;20254;-84
2021/03/05 09:20:21;;;;;;;2.50;1.90;;;1.30;77.80;;;;;;5094682;28;20198;-83
2021/03/05 09:22:57;;;;;;;6.90;2.17;;;1.50;76.90;;;;;;5076537;28;20257;-84
2021/03/05 09:25:31;;;;;;;5.50;2.23;;;1.60;75.70;;;;;;5094616;28;20190;-84
2021/03/05 09:28:07;;;;;;;4.13;2.40;;;1.70;76.60;;;;;;5094508;28;20253;-84
2021/03/05 09:30:38;;;;;;;5.47;2.00;;;1.70;76.40;;;;;;5075899;28;20176;-84
2021/03/05 09:33:06;;;;;;;5.57;2.07;;;1.90;76.20;;;;;;5094030;28;20223;-84
2021/03/05 09:35:38;;;;;;;2.97;2.10;;;2.10;76.10;;;;;;5094424;28;20207;-84
2021/03/05 09:38:19;;;;;;;8.17;2.07;;;2.30;75.70;;;;;;5094162;28;20167;-84
2021/03/05 09:40:53;;;;;;;4.70;1.50;;;2.50;75.60;;;;;;5075835;28;20232;-84
2021/03/05 09:43:24;;;;;;;5.23;1.70;;;2.70;69.50;;;;;;5094336;28;20161;-84
2021/03/05 09:45:55;;;;;;;5.33;1.70;;;2.80;69.00;;;;;;5093858;28;20728;-84
2021/03/05 09:48:35;;;;;;;4.40;1.70;;;3.00;67.20;;;;;;5075968;28;20220;-83
2021/03/05 09:51:08;;;;;;;3.77;1.70;;;3.00;66.90;;;;;;5094048;28;20178;-84
2021/03/05 09:53:39;;;;;;;4.53;1.83;;;3.20;69.00;;;;;;5075704;28;20213;-84
2021/03/05 09:56:11;;;;;;;1.67;1.50;;;3.30;69.70;;;;;;5093820;28;20188;-84
2021/03/05 09:59:05;;;;;;;5.20;1.97;;;3.40;67.40;;;;;;5075559;28;20181;-84
2021/03/05 10:01:34;;;;;;;5.03;2.10;;;3.50;68.20;;;;;;5094377;28;20157;-84
2021/03/05 10:04:05;;;;;;;6.20;1.80;;;3.70;68.50;;;;;;5093798;28;20222;-84
2021/03/05 10:06:34;;;;;;;15.13;2.70;;;3.80;66.70;;;;;;5095620;28;20218;-84
2021/03/05 10:09:12;;;;;;;8.63;2.50;;;4.00;68.30;;;;;;5094903;28;20171;-84
2021/03/05 10:11:44;;;;;;;3.90;1.73;;;4.10;69.90;;;;;;5093822;28;20261;-84
2021/03/05 10:14:29;;;;;;;5.40;1.97;;;4.30;69.00;;;;;;5093918;28;20174;-84
2021/03/05 10:17:10;;;;;;;5.03;1.70;;;4.50;69.40;;;;;;5094898;28;20652;-84
2021/03/05 10:19:38;;;;;;;5.53;1.60;;;4.70;67.90;;;;;;5076054;28;20194;-84
2021/03/05 10:22:13;;;;;;;3.23;1.73;;;4.80;66.00;;;;;;5093548;28;20181;-84
2021/03/05 10:24:43;;;;;;;4.13;1.40;;;4.70;66.20;;;;;;5093650;28;20614;-84
2021/03/05 10:27:23;;;;;;;2.93;1.70;;;4.90;66.50;;;;;;5093343;28;20642;-84
2021/03/05 10:29:56;;;;;;;5.10;1.50;;;5.10;66.60;;;;;;5093415;28;20158;-84
2021/03/05 10:32:28;;;;;;;5.83;1.50;;;5.20;63.90;;;;;;5093493;28;20151;-84
2021/03/05 10:34:55;;;;;;;9.03;1.40;;;5.40;64.30;;;;;;5093240;28;20167;-84
2021/03/05 10:37:21;;;;;;;6.37;1.43;;;5.20;58.70;;;;;;5093463;28;20535;-84
2021/03/05 10:39:49;;;;;;;11.23;1.70;;;5.30;61.60;;;;;;5093257;28;20195;-84
2021/03/05 10:42:16;;;;;;;3.97;1.60;;;5.40;61.60;;;;;;5075158;28;20262;-84
2021/03/05 10:44:44;;;;;;;3.60;1.63;;;5.70;63.90;;;;;;5078262;28;20175;-84
2021/03/05 10:47:12;;;;;;;4.03;1.40;;;5.80;61.20;;;;;;5097536;28;20196;-84
2021/03/05 10:49:38;;;;;;;2.73;1.40;;;6.00;61.20;;;;;;5097422;28;20175;-84
2021/03/05 10:52:05;;;;;;;5.03;1.63;;;6.00;58.60;;;;;;5079171;28;20623;-84
2021/03/05 10:54:31;;;;;;;3.40;1.37;;;6.00;58.50;;;;;;5079464;28;20194;-84
2021/03/05 10:56:57;;;;;;;7.43;1.60;;;5.90;57.00;;;;;;5097258;28;20566;-85
2021/03/05 10:59:23;;;;;;;5.40;1.67;;;6.00;59.80;;;;;;5097231;28;20233;-84
2021/03/05 11:01:54;;;;;;;5.80;1.30;;;6.30;59.30;;;;;;5079047;28;20544;-85
2021/03/05 11:04:23;;;;;;;5.13;1.40;;;6.30;57.00;;;;;;5097524;28;20203;-84
2021/03/05 11:06:50;;;;;;;5.03;1.30;;;6.40;58.20;;;;;;5097051;28;20200;-84
2021/03/05 11:09:20;;;;;;;6.07;1.30;;;6.30;53.50;;;;;;5097415;28;20323;-84
2021/03/05 11:11:46;;;;;;;1.90;1.40;;;6.30;55.70;;;;;;5097111;28;20183;-84
2021/03/05 11:14:13;;;;;;;7.87;1.47;;;6.60;57.80;;;;;;5096932;28;20211;-85
2021/03/05 11:16:39;;;;;;;1.80;1.30;;;6.40;52.90;;;;;;5096991;28;20196;-84
2021/03/05 11:19:05;;;;;;;3.90;1.40;;;6.50;57.20;;;;;;5079301;28;20590;-84
2021/03/05 11:21:32;;;;;;;3.67;1.50;;;6.90;57.10;;;;;;5097010;28;20534;-84
2021/03/05 11:23:58;;;;;;;1.77;1.30;;;7.10;56.70;;;;;;5078645;28;20259;-84
2021/03/05 11:26:24;;;;;;;8.67;1.50;;;7.30;56.90;;;;;;5096709;28;20277;-84
2021/03/05 11:28:51;;;;;;;3.83;1.40;;;7.30;52.80;;;;;;5078506;28;20549;-85
2021/03/05 11:31:18;;;;;;;4.13;1.20;;;7.50;54.20;;;;;;5096686;28;20669;-84
2021/03/05 11:33:44;;;;;;;3.00;1.53;;;7.70;54.00;;;;;;5078429;28;20658;-85
2021/03/05 11:36:14;;;;;;;2.60;1.23;;;7.80;55.40;;;;;;5078435;28;20193;-84
2021/03/05 11:38:41;;;;;;;3.37;1.10;;;7.30;45.10;;;;;;5096817;28;20563;-84
2021/03/05 11:41:07;;;;;;;4.20;1.50;;;7.30;51.70;;;;;;5078274;28;20189;-84
2021/03/05 11:43:48;;;;;;;5.70;1.30;;;7.40;52.50;;;;;;5078249;28;20178;-84
2021/03/05 11:46:24;;;;;;;4.60;1.60;;;7.20;52.30;;;;;;5096390;28;20543;-84
2021/03/05 11:49:01;;;;;;;3.60;1.57;;;7.30;53.90;;;;;;5096379;28;20241;-84
2021/03/05 11:51:38;;;;;;;3.37;1.67;;;7.70;54.50;;;;;;5096457;28;20170;-84
2021/03/05 11:54:11;;;;;;;3.97;1.63;;;7.90;54.60;;;;;;5095792;28;20238;-84
2021/03/05 11:56:47;;;;;;;4.80;1.57;;;8.20;52.30;;;;;;5096333;28;20202;-85
2021/03/05 11:59:21;;;;;;;3.03;1.40;;;8.30;51.60;;;;;;5077849;28;20276;-84
2021/03/05 12:01:56;;;;;;;3.17;1.43;;;7.50;51.80;;;;;;5077872;28;20204;-84
2021/03/05 12:04:26;;;;;;;5.80;1.30;;;7.50;54.30;;;;;;5096343;28;20158;-85
2021/03/05 12:07:00;;;;;;;3.83;1.30;;;8.10;53.40;;;;;;5095840;28;20249;-84
2021/03/05 12:09:31;;;;;;;6.67;1.43;;;8.20;49.90;;;;;;5077701;28;20221;-84
2021/03/05 12:12:07;;;;;;;6.43;1.50;;;8.10;50.90;;;;;;5095847;28;20189;-85
2021/03/05 12:14:48;;;;;;;3.33;1.50;;;8.10;49.60;;;;;;5095789;28;20163;-84
2021/03/05 12:17:20;;;;;;;3.43;1.47;;;8.10;51.90;;;;;;5077536;28;20178;-84
2021/03/05 12:19:51;;;;;;;1.67;1.40;;;8.10;49.60;;;;;;5095739;28;20213;-85
2021/03/05 12:22:27;;;;;;;2.83;1.63;;;8.20;50.70;;;;;;5095590;28;20695;-85
2021/03/05 12:24:59;;;;;;;5.97;1.57;;;8.20;46.40;;;;;;5077355;28;20642;-85
2021/03/05 12:27:31;;;;;;;1.70;1.00;;;8.00;48.80;;;;;;5095498;28;20217;-84
2021/03/05 12:30:05;;;;;;;2.50;1.20;;;8.00;49.80;;;;;;5095414;28;20171;-85
2021/03/05 12:32:39;;;;;;;4.73;1.50;;;8.40;50.70;;;;;;5095739;28;20181;-85
2021/03/05 12:35:16;;;;;;;3.07;1.43;;;8.70;49.90;;;;;;5095344;28;20697;-84
2021/03/05 12:37:50;;;;;;;1.83;1.30;;;8.50;49.60;;;;;;5095412;28;20259;-84
2021/03/05 12:40:26;;;;;;;1.67;1.30;;;8.40;45.50;;;;;;5095208;28;20187;-85
2021/03/05 12:43:00;;;;;;;2.60;1.80;;;8.40;47.90;;;;;;5077050;28;20205;-85
2021/03/05 12:45:38;;;;;;;4.07;1.33;;;8.70;49.20;;;;;;5076865;28;20195;-84
2021/03/05 12:48:11;;;;;;;2.77;1.30;;;8.80;46.70;;;;;;5077047;28;20257;-84
2021/03/05 12:50:41;;;;;;;2.97;1.30;;;8.50;49.20;;;;;;5077048;28;20570;-84
2021/03/05 12:53:16;;;;;;;5.17;1.40;;;8.80;47.80;;;;;;5076943;28;20199;-84
2021/03/05 12:55:47;;;;;;;2.30;1.40;;;8.70;47.60;;;;;;5095021;28;20186;-83
2021/03/05 12:58:26;;;;;;;6.53;1.30;;;8.50;47.40;;;;;;5094976;28;20171;-84
2021/03/05 13:00:57;;;;;;;3.63;1.50;;;8.30;49.00;;;;;;5094992;28;20190;-84
2021/03/05 13:03:31;;;;;;;3.80;1.63;;;8.60;46.30;;;;;;5094883;28;20224;-84
2021/03/05 13:06:05;;;;;;;3.03;1.30;;;8.80;47.20;;;;;;5091569;22;20219;-85
2021/03/05 13:08:41;;;;;;;3.93;1.70;;;9.00;47.80;;;;;;5056608;28;20172;-85
2021/03/05 13:11:17;;;;;;;3.07;1.30;;;8.80;46.00;;;;;;5056585;28;20164;-85
2021/03/05 13:13:54;;;;;;;6.97;1.30;;;8.80;45.90;;;;;;5074585;28;20167;-85
2021/03/05 13:16:31;;;;;;;5.60;1.70;;;8.80;45.60;;;;;;5075154;28;20194;-85
2021/03/05 13:19:03;;;;;;;2.23;1.10;;;8.70;47.20;;;;;;5074627;28;20250;-85
2021/03/05 13:21:35;;;;;;;3.77;1.43;;;9.00;46.10;;;;;;5056289;28;20172;-85